createdAt,value
2017-03-12T00:00:19.672Z,29.30
2017-03-12T00:01:18.767Z,24.67
2017-03-12T00:02:17.748Z,26.33
2017-03-12T00:03:16.373Z,29.63
2017-03-12T00:04:15.725Z,36.05
2017-03-12T00:05:14.732Z,23.88
2017-03-12T00:06:13.743Z,28.70
2017-03-12T00:07:12.753Z,22.00
2017-03-12T00:08:11.784Z,21.42
2017-03-12T00:09:10.793Z,27.05
2017-03-12T00:10:09.908Z,23.35
2017-03-12T00:11:08.909Z,25.92
2017-03-12T00:12:07.925Z,27.10
2017-03-12T00:13:06.890Z,24.13
2017-03-12T00:14:06.258Z,21.95
2017-03-12T00:15:05.314Z,23.20
2017-03-12T00:16:04.337Z,33.45
2017-03-12T00:17:03.449Z,22.17
2017-03-12T00:18:02.470Z,25.30
2017-03-12T00:19:01.489Z,27.47
2017-03-12T00:20:00.461Z,42.75
2017-03-12T00:20:59.485Z,25.48
2017-03-12T00:21:58.475Z,26.35
2017-03-12T00:22:57.617Z,28.18
2017-03-12T00:23:56.601Z,22.90
2017-03-12T00:24:55.189Z,20.62
2017-03-12T00:25:54.205Z,31.52
2017-03-12T00:26:52.872Z,28.22
2017-03-12T00:27:51.824Z,30.88
2017-03-12T00:28:50.868Z,33.45
2017-03-12T00:29:49.461Z,35.35
2017-03-12T00:30:48.520Z,19.88
2017-03-12T00:31:47.517Z,28.77
2017-03-12T00:32:46.518Z,32.23
2017-03-12T00:33:45.508Z,27.58
2017-03-12T00:34:44.496Z,19.98
2017-03-12T00:35:43.517Z,21.12
2017-03-12T00:36:42.544Z,27.25
2017-03-12T00:37:41.505Z,22.75
2017-03-12T00:38:40.109Z,23.20
2017-03-12T00:39:39.062Z,28.60
2017-03-12T00:40:38.121Z,23.98
2017-03-12T00:41:37.127Z,27.05
2017-03-12T00:42:35.756Z,28.47
2017-03-12T00:43:34.664Z,23.35
2017-03-12T00:44:33.678Z,36.90
2017-03-12T00:45:32.724Z,26.15
2017-03-12T00:46:31.729Z,27.72
2017-03-12T00:47:30.758Z,28.63
2017-03-12T00:48:29.825Z,29.28
2017-03-12T00:49:28.819Z,27.45
2017-03-12T00:50:27.816Z,30.27
2017-03-12T00:51:26.897Z,22.35
2017-03-12T00:52:25.873Z,29.12
2017-03-12T00:53:24.860Z,31.95
2017-03-12T00:54:23.909Z,30.87
2017-03-12T00:55:22.914Z,25.58
2017-03-12T00:56:21.512Z,38.12
2017-03-12T00:57:20.549Z,22.47
2017-03-12T00:58:19.556Z,23.65
2017-03-12T00:59:18.577Z,26.27
2017-03-12T01:00:17.612Z,35.28
2017-03-12T01:01:17.069Z,24.67
2017-03-12T01:02:16.059Z,24.40
2017-03-12T01:03:14.744Z,28.13
2017-03-12T01:04:13.776Z,27.72
2017-03-12T01:05:12.901Z,27.90
2017-03-12T01:06:11.948Z,30.42
2017-03-12T01:07:10.982Z,27.15
2017-03-12T01:08:10.012Z,27.98
2017-03-12T01:09:08.997Z,33.45
2017-03-12T01:10:08.089Z,31.00
2017-03-12T01:11:06.729Z,45.75
2017-03-12T01:12:05.745Z,31.35
2017-03-12T01:13:04.780Z,39.87
2017-03-12T01:14:03.760Z,38.42
2017-03-12T01:15:02.344Z,26.70
2017-03-12T01:16:01.415Z,24.87
2017-03-12T01:17:00.374Z,24.08
2017-03-12T01:17:59.401Z,27.08
2017-03-12T01:18:58.502Z,23.03
2017-03-12T01:19:57.589Z,32.12
2017-03-12T01:20:56.507Z,22.95
2017-03-12T01:21:55.496Z,29.25
2017-03-12T01:22:54.480Z,30.40
2017-03-12T01:23:53.503Z,28.48
2017-03-12T01:24:52.121Z,37.82
2017-03-12T01:25:51.107Z,27.32
2017-03-12T01:26:50.092Z,28.25
2017-03-12T01:27:49.081Z,27.00
2017-03-12T01:28:48.136Z,30.30
2017-03-12T01:29:47.148Z,28.18
2017-03-12T01:30:46.153Z,29.87
2017-03-12T01:31:45.168Z,29.98
2017-03-12T01:32:44.190Z,24.95
2017-03-12T01:33:43.192Z,26.02
2017-03-12T01:34:42.220Z,23.73
2017-03-12T01:35:42.480Z,24.40
2017-03-12T01:36:41.036Z,32.10
2017-03-12T01:37:40.047Z,25.37
2017-03-12T01:38:39.065Z,23.97
2017-03-12T01:39:38.019Z,32.02
2017-03-12T01:40:36.990Z,22.28
2017-03-12T01:41:36.041Z,23.08
2017-03-12T01:42:35.096Z,23.98
2017-03-12T01:43:34.102Z,29.18
2017-03-12T01:44:33.159Z,26.00
2017-03-12T01:45:32.560Z,23.67
2017-03-12T01:46:31.556Z,31.38
2017-03-12T01:47:30.118Z,25.18
2017-03-12T01:48:29.182Z,31.53
2017-03-12T01:49:28.193Z,30.08
2017-03-12T01:50:27.190Z,32.58
2017-03-12T01:51:26.224Z,27.60
2017-03-12T01:52:25.225Z,29.55
2017-03-12T01:53:24.215Z,31.68
2017-03-12T01:54:23.166Z,28.93
2017-03-12T01:55:22.181Z,22.02
2017-03-12T01:56:21.196Z,29.47
2017-03-12T01:57:20.141Z,21.63
2017-03-12T01:58:19.133Z,25.72
2017-03-12T01:59:18.121Z,23.92
2017-03-12T02:00:17.209Z,29.90
2017-03-12T02:01:16.336Z,24.12
2017-03-12T02:02:15.045Z,30.88
2017-03-12T02:03:14.120Z,36.82
2017-03-12T02:04:13.145Z,24.75
2017-03-12T02:05:12.212Z,29.77
2017-03-12T02:06:11.234Z,27.85
2017-03-12T02:07:10.303Z,30.75
2017-03-12T02:08:09.309Z,29.90
2017-03-12T02:09:08.313Z,21.78
2017-03-12T02:10:07.309Z,23.82
2017-03-12T02:11:06.278Z,25.98
2017-03-12T02:12:05.366Z,21.95
2017-03-12T02:13:04.421Z,26.37
2017-03-12T02:14:03.454Z,23.98
2017-03-12T02:15:02.492Z,29.83
2017-03-12T02:16:01.476Z,25.92
2017-03-12T02:17:00.125Z,21.25
2017-03-12T02:17:59.154Z,26.33
2017-03-12T02:18:58.181Z,24.63
2017-03-12T02:19:57.221Z,27.62
2017-03-12T02:20:55.801Z,35.03
2017-03-12T02:21:54.385Z,24.40
2017-03-12T02:22:53.431Z,28.18
2017-03-12T02:23:52.029Z,24.68
2017-03-12T02:24:51.139Z,25.58
2017-03-12T02:25:50.149Z,26.57
2017-03-12T02:26:49.150Z,24.67
2017-03-12T02:27:48.193Z,22.82
2017-03-12T02:28:47.241Z,21.35
2017-03-12T02:29:46.261Z,35.65
2017-03-12T02:30:45.340Z,19.52
2017-03-12T02:31:44.337Z,28.33
2017-03-12T02:32:43.265Z,26.50
2017-03-12T02:33:42.260Z,31.10
2017-03-12T02:34:41.331Z,37.83
2017-03-12T02:35:39.988Z,19.67
2017-03-12T02:36:38.976Z,22.30
2017-03-12T02:37:38.086Z,27.10
2017-03-12T02:38:37.488Z,21.92
2017-03-12T02:39:36.525Z,26.27
2017-03-12T02:40:35.108Z,29.20
2017-03-12T02:41:34.113Z,20.38
2017-03-12T02:42:33.148Z,29.20
2017-03-12T02:43:32.111Z,23.10
2017-03-12T02:44:30.740Z,27.28
2017-03-12T02:45:29.769Z,25.58
2017-03-12T02:46:28.817Z,26.55
2017-03-12T02:47:27.842Z,20.53
2017-03-12T02:48:26.945Z,26.70
2017-03-12T02:49:25.954Z,34.58
2017-03-12T02:50:24.538Z,32.42
2017-03-12T02:51:23.588Z,26.95
2017-03-12T02:52:22.537Z,25.08
2017-03-12T02:53:21.517Z,20.40
2017-03-12T02:54:20.163Z,26.40
2017-03-12T02:55:19.176Z,22.38
2017-03-12T02:56:18.206Z,25.50
2017-03-12T02:57:17.251Z,26.45
2017-03-12T02:58:16.253Z,24.97
2017-03-12T02:59:15.221Z,22.23
2017-03-12T03:00:14.201Z,26.82
2017-03-12T03:01:13.746Z,21.25
2017-03-12T03:02:12.720Z,33.25
2017-03-12T03:03:11.713Z,23.85
2017-03-12T03:04:10.710Z,27.58
2017-03-12T03:05:09.739Z,17.33
2017-03-12T03:06:08.818Z,30.00
2017-03-12T03:07:08.207Z,24.75
2017-03-12T03:08:06.822Z,26.73
2017-03-12T03:09:05.958Z,27.05
2017-03-12T03:10:04.635Z,26.50
2017-03-12T03:11:03.634Z,25.40
2017-03-12T03:12:02.680Z,22.07
2017-03-12T03:13:01.672Z,30.73
2017-03-12T03:14:00.680Z,19.78
2017-03-12T03:14:59.696Z,19.87
2017-03-12T03:15:58.678Z,24.05
2017-03-12T03:16:57.749Z,30.32
2017-03-12T03:17:56.757Z,24.68
2017-03-12T03:18:55.846Z,18.90
2017-03-12T03:19:54.861Z,26.53
2017-03-12T03:20:53.925Z,22.52
2017-03-12T03:21:52.878Z,20.70
2017-03-12T03:22:51.813Z,25.38
2017-03-12T03:23:50.809Z,28.68
2017-03-12T03:24:49.826Z,33.97
2017-03-12T03:25:48.809Z,21.87
2017-03-12T03:26:47.806Z,24.55
2017-03-12T03:27:46.801Z,31.12
2017-03-12T03:28:45.823Z,20.82
2017-03-12T03:29:44.796Z,20.27
2017-03-12T03:30:43.808Z,28.00
2017-03-12T03:31:42.902Z,27.02
2017-03-12T03:32:41.876Z,30.60
2017-03-12T03:33:40.867Z,30.53
2017-03-12T03:34:39.553Z,23.95
2017-03-12T03:35:38.601Z,23.67
2017-03-12T03:36:37.654Z,29.05
2017-03-12T03:37:36.589Z,22.88
2017-03-12T03:38:35.604Z,18.95
2017-03-12T03:39:34.573Z,27.85
2017-03-12T03:40:33.588Z,25.07
2017-03-12T03:41:32.658Z,32.40
2017-03-12T03:42:31.713Z,26.98
2017-03-12T03:43:30.733Z,30.43
2017-03-12T03:44:29.751Z,25.17
2017-03-12T03:45:28.738Z,25.17
2017-03-12T03:46:27.400Z,33.25
2017-03-12T03:47:26.477Z,28.83
2017-03-12T03:48:25.441Z,26.95
2017-03-12T03:49:24.363Z,25.47
2017-03-12T03:50:23.005Z,24.05
2017-03-12T03:51:22.094Z,47.77
2017-03-12T03:52:21.087Z,22.93
2017-03-12T03:53:20.118Z,24.03
2017-03-12T03:54:19.600Z,36.67
2017-03-12T03:55:19.082Z,27.18
2017-03-12T03:56:18.085Z,28.70
2017-03-12T03:57:17.140Z,30.63
2017-03-12T03:58:16.104Z,32.72
2017-03-12T03:59:14.748Z,30.38
2017-03-12T04:00:13.868Z,36.97
2017-03-12T04:01:12.937Z,35.07
2017-03-12T04:02:11.933Z,27.50
2017-03-12T04:03:10.984Z,34.50
2017-03-12T04:04:09.604Z,26.53
2017-03-12T04:05:08.708Z,30.57
2017-03-12T04:06:07.705Z,30.08
2017-03-12T04:07:06.749Z,32.00
2017-03-12T04:08:05.765Z,27.57
2017-03-12T04:09:05.787Z,35.82
2017-03-12T04:10:05.261Z,31.30
2017-03-12T04:11:04.325Z,40.03
2017-03-12T04:12:03.305Z,29.43
2017-03-12T04:13:02.221Z,30.58
2017-03-12T04:14:01.279Z,38.32
2017-03-12T04:14:59.899Z,25.92
2017-03-12T04:15:58.966Z,36.50
2017-03-12T04:16:58.077Z,24.92
2017-03-12T04:17:57.112Z,35.98
2017-03-12T04:18:56.124Z,25.88
2017-03-12T04:19:55.116Z,26.27
2017-03-12T04:20:54.112Z,27.22
2017-03-12T04:21:52.678Z,23.82
2017-03-12T04:22:51.289Z,31.85
2017-03-12T04:23:50.257Z,35.55
2017-03-12T04:24:49.309Z,23.37
2017-03-12T04:25:48.355Z,34.77
2017-03-12T04:26:46.972Z,22.52
2017-03-12T04:27:45.944Z,30.08
2017-03-12T04:28:44.568Z,24.45
2017-03-12T04:29:43.660Z,29.40
2017-03-12T04:30:42.686Z,25.82
2017-03-12T04:31:41.724Z,32.32
2017-03-12T04:32:40.650Z,26.18
2017-03-12T04:33:39.820Z,22.83
2017-03-12T04:34:38.860Z,27.82
2017-03-12T04:35:37.887Z,27.23
2017-03-12T04:36:36.480Z,23.77
2017-03-12T04:37:35.493Z,20.60
2017-03-12T04:38:34.481Z,22.07
2017-03-12T04:39:33.135Z,23.18
2017-03-12T04:40:32.585Z,24.60
2017-03-12T04:41:31.613Z,22.12
2017-03-12T04:42:30.197Z,32.37
2017-03-12T04:43:29.520Z,32.85
2017-03-12T04:44:28.544Z,27.55
2017-03-12T04:45:27.490Z,27.15
2017-03-12T04:46:26.526Z,23.48
2017-03-12T04:47:25.532Z,33.68
2017-03-12T04:48:24.544Z,19.33
2017-03-12T04:49:23.149Z,28.88
2017-03-12T04:50:22.145Z,19.05
2017-03-12T04:51:21.165Z,24.07
2017-03-12T04:52:20.197Z,26.97
2017-03-12T04:53:19.232Z,30.45
2017-03-12T04:54:18.278Z,32.88
2017-03-12T04:55:17.297Z,27.17
2017-03-12T04:56:15.917Z,22.03
2017-03-12T04:57:14.553Z,24.25
2017-03-12T04:58:13.764Z,24.38
2017-03-12T04:59:12.666Z,31.03
2017-03-12T05:00:11.793Z,27.12
2017-03-12T05:01:11.116Z,23.28
2017-03-12T05:02:10.116Z,29.95
2017-03-12T05:03:09.125Z,25.42
2017-03-12T05:04:08.192Z,27.13
2017-03-12T05:05:07.228Z,31.23
2017-03-12T05:06:06.249Z,29.85
2017-03-12T05:07:05.300Z,20.67
2017-03-12T05:08:04.285Z,18.50
2017-03-12T05:09:03.456Z,29.72
2017-03-12T05:10:02.465Z,27.02
2017-03-12T05:11:01.449Z,23.35
2017-03-12T05:12:00.460Z,24.73
2017-03-12T05:12:59.479Z,26.25
2017-03-12T05:13:58.498Z,26.38
2017-03-12T05:14:57.100Z,29.00
2017-03-12T05:15:56.180Z,18.97
2017-03-12T05:16:54.721Z,21.62
2017-03-12T05:17:53.693Z,19.97
2017-03-12T05:18:52.673Z,21.33
2017-03-12T05:19:51.708Z,23.60
2017-03-12T05:20:50.331Z,23.72
2017-03-12T05:21:49.373Z,17.63
2017-03-12T05:22:48.525Z,19.83
2017-03-12T05:23:47.895Z,25.37
2017-03-12T05:24:46.865Z,20.30
2017-03-12T05:25:46.297Z,24.18
2017-03-12T05:26:45.264Z,17.85
2017-03-12T05:27:44.697Z,28.00
2017-03-12T05:28:43.691Z,28.37
2017-03-12T05:29:42.351Z,18.68
2017-03-12T05:30:40.976Z,22.87
2017-03-12T05:31:39.956Z,29.48
2017-03-12T05:32:38.928Z,30.42
2017-03-12T05:33:37.977Z,20.78
2017-03-12T05:34:37.018Z,22.23
2017-03-12T05:35:36.033Z,22.10
2017-03-12T05:36:35.077Z,16.90
2017-03-12T05:37:33.692Z,28.00
2017-03-12T05:38:32.689Z,40.13
2017-03-12T05:39:31.678Z,22.98
2017-03-12T05:40:30.641Z,27.47
2017-03-12T05:41:30.032Z,18.07
2017-03-12T05:42:29.029Z,30.05
2017-03-12T05:43:28.077Z,26.68
2017-03-12T05:44:27.085Z,19.35
2017-03-12T05:45:26.058Z,23.28
2017-03-12T05:46:24.720Z,30.65
2017-03-12T05:47:23.696Z,26.28
2017-03-12T05:48:22.709Z,22.60
2017-03-12T05:49:21.702Z,27.63
2017-03-12T05:50:21.157Z,24.13
2017-03-12T05:51:20.097Z,21.43
2017-03-12T05:52:19.139Z,27.53
2017-03-12T05:53:17.668Z,24.47
2017-03-12T05:54:16.705Z,29.95
2017-03-12T05:55:16.440Z,22.85
2017-03-12T05:56:15.455Z,24.95
2017-03-12T05:57:14.478Z,25.00
2017-03-12T05:58:13.505Z,24.33
2017-03-12T05:59:12.518Z,24.38
2017-03-12T06:00:11.228Z,22.80
2017-03-12T06:01:10.169Z,23.55
2017-03-12T06:02:09.197Z,25.63
2017-03-12T06:03:08.564Z,19.83
2017-03-12T06:04:07.139Z,32.40
2017-03-12T06:05:06.167Z,23.70
2017-03-12T06:06:05.129Z,24.20
2017-03-12T06:07:04.193Z,31.90
2017-03-12T06:08:03.209Z,25.93
2017-03-12T06:09:02.282Z,23.32
2017-03-12T06:10:01.250Z,21.98
2017-03-12T06:11:00.243Z,24.82
2017-03-12T06:11:59.228Z,20.13
2017-03-12T06:12:58.215Z,23.73
2017-03-12T06:13:57.208Z,24.72
2017-03-12T06:14:56.195Z,24.58
2017-03-12T06:15:55.198Z,26.90
2017-03-12T06:16:53.815Z,24.72
2017-03-12T06:17:52.778Z,22.53
2017-03-12T06:18:51.772Z,27.75
2017-03-12T06:19:50.825Z,26.32
2017-03-12T06:20:49.778Z,23.03
2017-03-12T06:21:48.846Z,27.30
2017-03-12T06:22:47.857Z,28.20
2017-03-12T06:23:46.880Z,27.48
2017-03-12T06:24:45.544Z,31.80
2017-03-12T06:25:44.505Z,24.83
2017-03-12T06:26:43.529Z,26.25
2017-03-12T06:27:42.589Z,21.68
2017-03-12T06:28:41.640Z,22.93
2017-03-12T06:29:40.646Z,27.78
2017-03-12T06:30:39.759Z,22.90
2017-03-12T06:31:38.759Z,21.98
2017-03-12T06:32:37.361Z,35.38
2017-03-12T06:33:35.880Z,32.88
2017-03-12T06:34:34.930Z,24.42
2017-03-12T06:35:33.916Z,26.90
2017-03-12T06:36:32.896Z,22.85
2017-03-12T06:37:31.953Z,24.92
2017-03-12T06:38:30.982Z,23.30
2017-03-12T06:39:30.049Z,23.68
2017-03-12T06:40:29.045Z,23.12
2017-03-12T06:41:28.041Z,27.43
2017-03-12T06:42:27.039Z,19.85
2017-03-12T06:43:26.098Z,21.10
2017-03-12T06:44:25.133Z,27.77
2017-03-12T06:45:24.197Z,30.22
2017-03-12T06:46:23.291Z,17.33
2017-03-12T06:47:22.316Z,23.47
2017-03-12T06:48:21.321Z,19.83
2017-03-12T06:49:20.296Z,29.63
2017-03-12T06:50:19.352Z,19.02
2017-03-12T06:51:18.362Z,31.42
2017-03-12T06:52:17.384Z,26.33
2017-03-12T06:53:16.328Z,21.22
2017-03-12T06:54:15.344Z,24.08
2017-03-12T06:55:14.336Z,21.05
2017-03-12T06:56:13.337Z,20.20
2017-03-12T06:57:12.308Z,17.15
2017-03-12T06:58:11.382Z,24.53
2017-03-12T06:59:10.389Z,20.78
2017-03-12T07:00:09.389Z,30.28
2017-03-12T07:01:08.384Z,22.87
2017-03-12T07:02:07.412Z,25.57
2017-03-12T07:03:06.419Z,29.80
2017-03-12T07:04:05.384Z,16.83
2017-03-12T07:05:04.411Z,18.25
2017-03-12T07:06:03.407Z,16.57
2017-03-12T07:07:02.405Z,28.62
2017-03-12T07:08:01.455Z,25.50
2017-03-12T07:09:00.403Z,32.08
2017-03-12T07:09:59.364Z,23.17
2017-03-12T07:10:58.361Z,19.05
2017-03-12T07:11:57.359Z,25.18
2017-03-12T07:12:56.353Z,23.02
2017-03-12T07:13:55.502Z,19.63
2017-03-12T07:14:54.512Z,22.10
2017-03-12T07:15:53.548Z,25.98
2017-03-12T07:16:52.901Z,22.10
2017-03-12T07:17:51.893Z,18.58
2017-03-12T07:18:50.865Z,18.98
2017-03-12T07:19:49.868Z,19.63
2017-03-12T07:20:48.892Z,16.98
2017-03-12T07:21:47.997Z,16.75
2017-03-12T07:22:46.985Z,16.63
2017-03-12T07:23:45.937Z,29.40
2017-03-12T07:24:45.288Z,20.50
2017-03-12T07:25:44.641Z,21.77
2017-03-12T07:26:43.616Z,17.92
2017-03-12T07:27:42.622Z,18.22
2017-03-12T07:28:41.533Z,24.40
2017-03-12T07:29:40.225Z,24.38
2017-03-12T07:30:39.371Z,21.65
2017-03-12T07:31:38.395Z,17.73
2017-03-12T07:32:37.406Z,23.12
2017-03-12T07:33:36.356Z,20.55
2017-03-12T07:34:35.355Z,21.65
2017-03-12T07:35:34.712Z,22.65
2017-03-12T07:36:33.658Z,21.40
2017-03-12T07:37:32.784Z,22.32
2017-03-12T07:38:31.721Z,14.87
2017-03-12T07:39:30.721Z,23.62
2017-03-12T07:40:29.647Z,24.05
2017-03-12T07:41:28.678Z,19.92
2017-03-12T07:42:27.631Z,17.28
2017-03-12T07:43:26.679Z,16.05
2017-03-12T07:44:25.647Z,22.57
2017-03-12T07:45:24.647Z,34.85
2017-03-12T07:46:23.621Z,20.43
2017-03-12T07:47:22.633Z,19.47
2017-03-12T07:48:21.577Z,18.85
2017-03-12T07:49:20.604Z,25.05
2017-03-12T07:50:19.657Z,21.37
2017-03-12T07:51:18.695Z,22.17
2017-03-12T07:52:17.329Z,19.57
2017-03-12T07:53:16.320Z,16.17
2017-03-12T07:54:15.339Z,19.38
2017-03-12T07:55:13.964Z,20.45
2017-03-12T07:56:12.967Z,21.42
2017-03-12T07:57:11.969Z,21.55
2017-03-12T07:58:10.939Z,17.65
2017-03-12T07:59:09.881Z,19.50
2017-03-12T08:00:08.869Z,27.57
2017-03-12T08:01:07.918Z,26.35
2017-03-12T08:02:06.517Z,31.28
2017-03-12T08:03:05.537Z,24.83
2017-03-12T08:04:04.540Z,18.00
2017-03-12T08:05:03.529Z,25.82
2017-03-12T08:06:02.550Z,18.98
2017-03-12T08:07:01.168Z,20.97
2017-03-12T08:08:00.164Z,19.07
2017-03-12T08:08:59.129Z,31.78
2017-03-12T08:09:58.169Z,23.92
2017-03-12T08:10:56.750Z,21.27
2017-03-12T08:11:55.713Z,20.52
2017-03-12T08:12:54.671Z,23.33
2017-03-12T08:13:53.681Z,19.88
2017-03-12T08:14:53.076Z,26.62
2017-03-12T08:15:51.593Z,19.28
2017-03-12T08:16:50.170Z,21.10
2017-03-12T08:17:49.209Z,20.52
2017-03-12T08:18:48.217Z,29.10
2017-03-12T08:19:47.195Z,18.63
2017-03-12T08:20:46.280Z,19.92
2017-03-12T08:21:45.253Z,22.73
2017-03-12T08:22:44.776Z,27.55
2017-03-12T08:23:43.937Z,22.02
2017-03-12T08:24:42.940Z,25.57
2017-03-12T08:25:41.544Z,22.10
2017-03-12T08:26:40.962Z,25.17
2017-03-12T08:27:40.341Z,19.70
2017-03-12T08:28:39.293Z,26.52
2017-03-12T08:29:38.277Z,23.53
2017-03-12T08:30:37.350Z,19.93
2017-03-12T08:31:36.317Z,25.17
2017-03-12T08:32:35.268Z,17.88
2017-03-12T08:33:34.273Z,18.80
2017-03-12T08:34:33.265Z,26.68
2017-03-12T08:35:32.204Z,19.00
2017-03-12T08:36:31.217Z,22.20
2017-03-12T08:37:30.208Z,19.38
2017-03-12T08:38:29.116Z,21.22
2017-03-12T08:39:28.105Z,21.32
2017-03-12T08:40:27.177Z,15.80
2017-03-12T08:41:26.106Z,18.90
2017-03-12T08:42:25.149Z,24.55
2017-03-12T08:43:24.149Z,20.17
2017-03-12T08:44:23.120Z,30.80
2017-03-12T08:45:21.708Z,22.35
2017-03-12T08:46:20.665Z,30.28
2017-03-12T08:47:19.550Z,23.53
2017-03-12T08:48:18.608Z,24.15
2017-03-12T08:49:17.564Z,21.33
2017-03-12T08:50:16.652Z,22.97
2017-03-12T08:51:15.244Z,19.78
2017-03-12T08:52:14.190Z,20.72
2017-03-12T08:53:13.217Z,19.42
2017-03-12T08:54:12.186Z,18.37
2017-03-12T08:55:11.205Z,21.17
2017-03-12T08:56:10.228Z,26.82
2017-03-12T08:57:09.176Z,18.03
2017-03-12T08:58:08.161Z,22.88
2017-03-12T08:59:07.165Z,18.55
2017-03-12T09:00:06.248Z,29.23
2017-03-12T09:01:05.259Z,18.73
2017-03-12T09:02:04.236Z,19.03
2017-03-12T09:03:03.224Z,19.62
2017-03-12T09:04:02.179Z,21.05
2017-03-12T09:05:01.189Z,22.33
2017-03-12T09:06:00.184Z,28.43
2017-03-12T09:06:59.152Z,23.38
2017-03-12T09:07:58.110Z,22.25
2017-03-12T09:08:57.145Z,24.87
2017-03-12T09:09:56.497Z,24.82
2017-03-12T09:10:55.505Z,24.03
2017-03-12T09:11:54.518Z,20.47
2017-03-12T09:12:53.838Z,25.10
2017-03-12T09:13:52.803Z,19.02
2017-03-12T09:14:51.772Z,21.17
2017-03-12T09:15:50.740Z,20.87
2017-03-12T09:16:49.365Z,19.98
2017-03-12T09:17:49.149Z,28.08
2017-03-12T09:18:48.313Z,18.07
2017-03-12T09:19:47.433Z,30.70
2017-03-12T09:20:46.494Z,21.20
2017-03-12T09:21:45.513Z,27.70
2017-03-12T09:22:44.527Z,22.72
2017-03-12T09:23:43.565Z,26.05
2017-03-12T09:24:42.182Z,28.48
2017-03-12T09:25:41.388Z,19.25
2017-03-12T09:26:40.359Z,22.17
2017-03-12T09:27:39.747Z,22.02
2017-03-12T09:28:38.725Z,20.63
2017-03-12T09:29:37.756Z,23.43
2017-03-12T09:30:36.843Z,22.20
2017-03-12T09:31:36.221Z,25.58
2017-03-12T09:32:34.821Z,22.48
2017-03-12T09:33:33.828Z,21.40
2017-03-12T09:34:32.445Z,29.50
2017-03-12T09:35:31.501Z,19.95
2017-03-12T09:36:30.550Z,24.72
2017-03-12T09:37:29.573Z,25.77
2017-03-12T09:38:28.599Z,21.87
2017-03-12T09:39:27.225Z,22.23
2017-03-12T09:40:26.313Z,32.25
2017-03-12T09:41:24.952Z,19.45
2017-03-12T09:42:23.969Z,21.78
2017-03-12T09:43:23.049Z,27.10
2017-03-12T09:44:22.058Z,24.80
2017-03-12T09:45:21.074Z,27.98
2017-03-12T09:46:22.220Z,23.72
2017-03-12T09:47:21.192Z,16.83
2017-03-12T09:48:20.211Z,23.43
2017-03-12T09:49:19.266Z,24.43
2017-03-12T09:50:18.272Z,27.48
2017-03-12T09:51:17.273Z,17.48
2017-03-12T09:52:16.290Z,21.17
2017-03-12T09:53:14.914Z,17.40
2017-03-12T09:54:13.902Z,17.68
2017-03-12T09:55:12.934Z,24.22
2017-03-12T09:56:11.906Z,21.03
2017-03-12T09:57:10.859Z,21.85
2017-03-12T09:58:09.880Z,23.38
2017-03-12T09:59:08.900Z,17.32
2017-03-12T10:00:08.004Z,19.73
2017-03-12T10:01:08.205Z,19.43
2017-03-12T10:02:06.807Z,19.80
2017-03-12T10:03:05.779Z,16.77
2017-03-12T10:04:04.747Z,16.13
2017-03-12T10:05:03.779Z,17.95
2017-03-12T10:06:07.271Z,25.58
2017-03-12T10:07:06.274Z,18.02
2017-03-12T10:08:05.216Z,15.18
2017-03-12T10:09:05.212Z,21.28
2017-03-12T10:10:03.878Z,15.08
2017-03-12T10:11:02.900Z,17.97
2017-03-12T10:12:02.886Z,12.72
2017-03-12T10:13:03.429Z,14.60
2017-03-12T10:14:02.428Z,17.25
2017-03-12T10:15:01.459Z,19.40
2017-03-12T10:16:00.460Z,10.22
2017-03-12T10:16:59.495Z,16.78
2017-03-12T10:17:58.511Z,11.38
2017-03-12T10:18:57.494Z,16.48
2017-03-12T10:19:56.500Z,23.43
2017-03-12T10:20:55.489Z,15.75
2017-03-12T10:21:54.512Z,14.28
2017-03-12T10:22:53.468Z,15.23
2017-03-12T10:23:52.497Z,15.00
2017-03-12T10:24:51.468Z,13.28
2017-03-12T10:25:50.489Z,12.97
2017-03-12T10:26:49.471Z,12.25
2017-03-12T10:27:48.530Z,16.80
2017-03-12T10:28:47.471Z,12.65
2017-03-12T10:29:46.523Z,9.92
2017-03-12T10:30:45.130Z,11.02
2017-03-12T10:31:44.098Z,16.77
2017-03-12T10:32:43.134Z,9.60
2017-03-12T10:33:41.748Z,15.55
2017-03-12T10:34:40.772Z,14.63
2017-03-12T10:35:39.733Z,10.72
2017-03-12T10:36:38.756Z,15.27
2017-03-12T10:37:39.973Z,14.58
2017-03-12T10:38:38.585Z,13.03
2017-03-12T10:39:37.631Z,10.12
2017-03-12T10:40:36.628Z,9.17
2017-03-12T10:41:35.627Z,11.13
2017-03-12T10:42:34.611Z,12.15
2017-03-12T10:43:33.598Z,15.50
2017-03-12T10:44:32.587Z,9.18
2017-03-12T10:45:31.549Z,12.37
2017-03-12T10:46:30.563Z,12.90
2017-03-12T10:47:29.557Z,11.53
2017-03-12T10:48:28.568Z,20.52
2017-03-12T10:49:27.621Z,18.05
2017-03-12T10:50:26.723Z,9.23
2017-03-12T10:51:25.749Z,13.33
2017-03-12T10:52:24.729Z,10.23
2017-03-12T10:53:23.777Z,15.18
2017-03-12T10:54:22.743Z,16.15
2017-03-12T10:55:21.704Z,9.37
2017-03-12T10:56:20.659Z,10.45
2017-03-12T10:57:19.609Z,14.72
2017-03-12T10:58:18.555Z,11.68
2017-03-12T10:59:17.580Z,11.62
2017-03-12T11:00:16.596Z,14.58
2017-03-12T11:01:15.594Z,11.18
2017-03-12T11:02:14.969Z,11.38
2017-03-12T11:03:13.944Z,12.80
2017-03-12T11:04:12.881Z,11.27
2017-03-12T11:05:11.912Z,8.48
2017-03-12T11:06:10.463Z,11.12
2017-03-12T11:07:09.457Z,19.57
2017-03-12T11:08:08.458Z,10.72
2017-03-12T11:09:07.130Z,12.77
2017-03-12T11:10:06.117Z,19.43
2017-03-12T11:11:05.221Z,17.28
2017-03-12T11:12:03.790Z,10.00
2017-03-12T11:13:02.826Z,12.12
2017-03-12T11:14:02.581Z,12.38
2017-03-12T11:15:01.958Z,7.60
2017-03-12T11:16:01.345Z,16.75
2017-03-12T11:17:00.385Z,15.73
2017-03-12T11:17:59.336Z,8.70
2017-03-12T11:18:58.395Z,11.82
2017-03-12T11:19:57.460Z,14.43
2017-03-12T11:20:56.488Z,12.98
2017-03-12T11:21:55.542Z,15.97
2017-03-12T11:22:54.533Z,9.70
2017-03-12T11:23:53.860Z,10.77
2017-03-12T11:24:52.984Z,10.25
2017-03-12T11:25:52.013Z,8.77
2017-03-12T11:26:51.002Z,10.63
2017-03-12T11:27:49.988Z,8.63
2017-03-12T11:28:49.348Z,8.02
2017-03-12T11:29:48.336Z,8.23
2017-03-12T11:30:47.308Z,5.68
2017-03-12T11:31:46.338Z,17.75
2017-03-12T11:32:45.294Z,11.47
2017-03-12T11:33:43.869Z,14.35
2017-03-12T11:34:42.878Z,8.12
2017-03-12T11:35:43.061Z,9.42
2017-03-12T11:36:42.388Z,8.63
2017-03-12T11:37:41.397Z,8.02
2017-03-12T11:38:45.401Z,10.97
2017-03-12T11:39:49.640Z,9.65
2017-03-12T11:40:48.673Z,10.37
2017-03-12T11:41:48.697Z,11.68
2017-03-12T11:42:53.663Z,7.02
2017-03-12T11:43:52.724Z,9.52
2017-03-12T11:44:56.197Z,11.13
2017-03-12T11:45:56.045Z,11.17
2017-03-12T11:46:55.074Z,11.43
2017-03-12T11:47:53.741Z,10.18
2017-03-12T11:48:52.893Z,8.48
2017-03-12T11:49:51.934Z,9.57
2017-03-12T11:50:51.301Z,9.65
2017-03-12T11:51:50.304Z,9.12
2017-03-12T11:52:49.473Z,8.08
2017-03-12T11:53:48.501Z,10.47
2017-03-12T11:54:47.205Z,8.22
2017-03-12T11:55:46.625Z,5.77
2017-03-12T11:56:45.754Z,8.47
2017-03-12T11:57:44.798Z,11.13
2017-03-12T11:58:43.746Z,5.73
2017-03-12T11:59:42.806Z,10.40
2017-03-12T12:00:41.925Z,9.20
2017-03-12T12:01:40.947Z,7.73
2017-03-12T12:02:40.010Z,6.00
2017-03-12T12:03:38.581Z,6.42
2017-03-12T12:04:37.539Z,7.53
2017-03-12T12:05:36.586Z,9.15
2017-03-12T12:06:35.553Z,13.13
2017-03-12T12:07:34.396Z,11.53
2017-03-12T12:08:33.334Z,7.65
2017-03-12T12:09:32.324Z,11.17
2017-03-12T12:10:31.341Z,7.60
2017-03-12T12:11:30.694Z,11.05
2017-03-12T12:12:29.679Z,8.32
2017-03-12T12:13:28.636Z,9.17
2017-03-12T12:14:28.061Z,10.18
2017-03-12T12:15:27.051Z,6.68
2017-03-12T12:16:26.048Z,10.48
2017-03-12T12:17:25.129Z,12.55
2017-03-12T12:18:24.129Z,13.53
2017-03-12T12:19:23.159Z,9.73
2017-03-12T12:20:22.145Z,19.35
2017-03-12T12:21:21.131Z,13.43
2017-03-12T12:22:20.172Z,14.67
2017-03-12T12:23:19.217Z,10.85
2017-03-12T12:24:18.285Z,8.45
2017-03-12T12:25:17.329Z,8.50
2017-03-12T12:26:15.933Z,9.73
2017-03-12T12:27:14.908Z,7.65
2017-03-12T12:28:13.918Z,8.93
2017-03-12T12:29:12.507Z,6.78
2017-03-12T12:30:11.571Z,9.52
2017-03-12T12:31:10.620Z,7.02
2017-03-12T12:32:09.215Z,7.82
2017-03-12T12:33:07.798Z,6.85
2017-03-12T12:34:06.802Z,8.05
2017-03-12T12:35:05.759Z,8.43
2017-03-12T12:36:04.358Z,8.32
2017-03-12T12:37:03.314Z,9.13
2017-03-12T12:38:02.347Z,5.90
2017-03-12T12:39:01.337Z,6.60
2017-03-12T12:40:00.270Z,11.45
2017-03-12T12:40:59.273Z,13.63
2017-03-12T12:41:58.315Z,6.68